sensor_id;sensor_type;location;lat;lon;timestamp;pressure;altitude;pressure_sealevel;temperature;humidity
56402;BME280;42299;35.160;26.100;2022-12-31T00:00:32;102553.50;;;11.37;100.00
56402;BME280;42299;35.160;26.100;2022-12-31T00:01:53;102556.16;;;11.37;100.00
56402;BME280;42299;35.160;26.100;2022-12-31T00:03:15;102556.97;;;11.36;100.00
56402;BME280;42299;35.160;26.100;2022-12-31T00:04:37;102551.66;;;11.35;100.00
56402;BME280;42299;35.160;26.100;2022-12-31T00:05:59;102562.22;;;11.35;100.00
56402;BME280;42299;35.160;26.100;2022-12-31T00:07:21;102556.94;;;11.35;100.00
56402;BME280;42299;35.160;26.100;2022-12-31T00:08:44;102550.75;;;11.34;100.00
56402;BME280;42299;35.160;26.100;2022-12-31T00:10:08;102558.47;;;11.30;100.00
56402;BME280;42299;35.160;26.100;2022-12-31T00:11:29;102559.25;;;11.27;100.00
56402;BME280;42299;35.160;26.100;2022-12-31T00:12:52;102555.56;;;11.24;100.00
56402;BME280;42299;35.160;26.100;2022-12-31T00:14:13;102559.84;;;11.20;100.00
56402;BME280;42299;35.160;26.100;2022-12-31T00:15:36;102552.69;;;11.17;100.00
56402;BME280;42299;35.160;26.100;2022-12-31T00:16:59;102550.88;;;11.16;100.00
56402;BME280;42299;35.160;26.100;2022-12-31T00:18:22;102553.50;;;11.16;100.00
56402;BME280;42299;35.160;26.100;2022-12-31T00:19:42;102552.59;;;11.16;100.00
56402;BME280;42299;35.160;26.100;2022-12-31T00:21:05;102549.09;;;11.15;100.00
56402;BME280;42299;35.160;26.100;2022-12-31T00:22:27;102544.69;;;11.16;100.00
56402;BME280;42299;35.160;26.100;2022-12-31T00:23:49;102551.72;;;11.15;100.00
56402;BME280;42299;35.160;26.100;2022-12-31T00:25:14;102547.28;;;11.14;100.00
56402;BME280;42299;35.160;26.100;2022-12-31T00:26:36;102554.38;;;11.15;100.00
56402;BME280;42299;35.160;26.100;2022-12-31T00:27:58;102563.19;;;11.16;100.00
56402;BME280;42299;35.160;26.100;2022-12-31T00:29:19;102552.50;;;11.13;100.00
56402;BME280;42299;35.160;26.100;2022-12-31T00:30:42;102549.78;;;11.11;100.00
56402;BME280;42299;35.160;26.100;2022-12-31T00:32:03;102544.41;;;11.10;100.00
56402;BME280;42299;35.160;26.100;2022-12-31T00:33:25;102542.66;;;11.09;100.00
56402;BME280;42299;35.160;26.100;2022-12-31T00:34:46;102542.56;;;11.07;100.00
56402;BME280;42299;35.160;26.100;2022-12-31T00:36:09;102545.22;;;11.07;100.00
56402;BME280;42299;35.160;26.100;2022-12-31T00:37:32;102545.22;;;11.07;100.00
56402;BME280;42299;35.160;26.100;2022-12-31T00:38:54;102540.84;;;11.08;100.00
56402;BME280;42299;35.160;26.100;2022-12-31T00:40:19;102539.22;;;11.11;100.00
56402;BME280;42299;35.160;26.100;2022-12-31T00:41:40;102539.28;;;11.13;100.00
56402;BME280;42299;35.160;26.100;2022-12-31T00:43:03;102540.19;;;11.13;100.00
56402;BME280;42299;35.160;26.100;2022-12-31T00:44:26;102538.53;;;11.15;100.00
56402;BME280;42299;35.160;26.100;2022-12-31T00:45:48;102542.09;;;11.17;100.00
56402;BME280;42299;35.160;26.100;2022-12-31T00:47:10;102545.66;;;11.18;100.00
56402;BME280;42299;35.160;26.100;2022-12-31T00:48:32;102540.44;;;11.19;100.00
56402;BME280;42299;35.160;26.100;2022-12-31T00:49:55;102544.06;;;11.22;100.00
56402;BME280;42299;35.160;26.100;2022-12-31T00:51:18;102540.44;;;11.19;100.00
56402;BME280;42299;35.160;26.100;2022-12-31T00:52:41;102543.09;;;11.19;100.00
56402;BME280;42299;35.160;26.100;2022-12-31T00:54:01;102546.63;;;11.20;100.00
56402;BME280;42299;35.160;26.100;2022-12-31T00:55:25;102543.09;;;11.19;100.00
56402;BME280;42299;35.160;26.100;2022-12-31T00:56:47;102536.81;;;11.17;100.00
56402;BME280;42299;35.160;26.100;2022-12-31T00:58:09;102538.56;;;11.17;100.00
56402;BME280;42299;35.160;26.100;2022-12-31T00:59:30;102542.94;;;11.16;100.00
56402;BME280;42299;35.160;26.100;2022-12-31T01:00:52;102542.94;;;11.16;100.00
56402;BME280;42299;35.160;26.100;2022-12-31T01:02:13;102543.84;;;11.17;100.00
56402;BME280;42299;35.160;26.100;2022-12-31T01:03:36;102542.91;;;11.15;100.00
56402;BME280;42299;35.160;26.100;2022-12-31T01:04:57;102546.50;;;11.17;100.00
56402;BME280;42299;35.160;26.100;2022-12-31T01:06:19;102548.28;;;11.18;100.00
56402;BME280;42299;35.160;26.100;2022-12-31T01:07:40;102543.91;;;11.18;100.00
56402;BME280;42299;35.160;26.100;2022-12-31T01:09:02;102543.09;;;11.19;100.00
56402;BME280;42299;35.160;26.100;2022-12-31T01:10:26;102550.28;;;11.24;100.00
56402;BME280;42299;35.160;26.100;2022-12-31T01:12:02;102543.19;;;11.23;100.00
56402;BME280;42299;35.160;26.100;2022-12-31T01:13:24;102551.13;;;11.23;100.00
56402;BME280;42299;35.160;26.100;2022-12-31T01:14:45;102548.38;;;11.19;100.00
56402;BME280;42299;35.160;26.100;2022-12-31T01:16:08;102553.50;;;11.16;100.00
56402;BME280;42299;35.160;26.100;2022-12-31T01:17:29;102546.38;;;11.14;100.00
56402;BME280;42299;35.160;26.100;2022-12-31T01:18:51;102544.50;;;11.11;100.00
56402;BME280;42299;35.160;26.100;2022-12-31T01:20:12;102547.06;;;11.10;100.00
56402;BME280;42299;35.160;26.100;2022-12-31T01:21:35;102544.38;;;11.08;100.00
56402;BME280;42299;35.160;26.100;2022-12-31T01:22:58;102545.22;;;11.07;100.00
56402;BME280;42299;35.160;26.100;2022-12-31T01:24:19;102540.75;;;11.06;100.00
56402;BME280;42299;35.160;26.100;2022-12-31T01:25:44;102546.81;;;11.04;100.00
56402;BME280;42299;35.160;26.100;2022-12-31T01:27:05;102539.72;;;11.03;100.00
56402;BME280;42299;35.160;26.100;2022-12-31T01:28:27;102537.06;;;11.03;100.00
56402;BME280;42299;35.160;26.100;2022-12-31T01:29:48;102537.06;;;11.03;100.00
56402;BME280;42299;35.160;26.100;2022-12-31T01:31:11;102537.97;;;11.03;100.00
56402;BME280;42299;35.160;26.100;2022-12-31T01:32:33;102539.03;;;11.07;100.00
56402;BME280;42299;35.160;26.100;2022-12-31T01:33:56;102535.56;;;11.08;100.00
56402;BME280;42299;35.160;26.100;2022-12-31T01:35:19;102539.09;;;11.08;100.00
56402;BME280;42299;35.160;26.100;2022-12-31T01:36:40;102538.22;;;11.09;100.00
56402;BME280;42299;35.160;26.100;2022-12-31T01:38:02;102538.22;;;11.09;100.00
56402;BME280;42299;35.160;26.100;2022-12-31T01:39:23;102544.41;;;11.10;100.00
56402;BME280;42299;35.160;26.100;2022-12-31T01:40:46;102545.28;;;11.09;100.00
56402;BME280;42299;35.160;26.100;2022-12-31T01:42:08;102542.56;;;11.07;100.00
56402;BME280;42299;35.160;26.100;2022-12-31T01:43:41;102546.88;;;11.05;100.00
56402;BME280;42299;35.160;26.100;2022-12-31T01:45:04;102546.78;;;11.02;100.00
56402;BME280;42299;35.160;26.100;2022-12-31T01:46:32;102543.97;;;10.99;100.00
56402;BME280;42299;35.160;26.100;2022-12-31T01:47:56;102537.69;;;10.96;100.00
56402;BME280;42299;35.160;26.100;2022-12-31T01:49:21;102539.47;;;10.97;100.00
56402;BME280;42299;35.160;26.100;2022-12-31T01:50:44;102543.00;;;10.97;100.00
56402;BME280;42299;35.160;26.100;2022-12-31T01:52:08;102535.03;;;10.96;100.00
56402;BME280;42299;35.160;26.100;2022-12-31T01:53:31;102534.13;;;10.95;100.00
56402;BME280;42299;35.160;26.100;2022-12-31T01:54:54;102536.78;;;10.95;100.00
56402;BME280;42299;35.160;26.100;2022-12-31T01:56:18;102531.53;;;10.97;100.00
56402;BME280;42299;35.160;26.100;2022-12-31T01:57:42;102533.41;;;10.99;100.00
56402;BME280;42299;35.160;26.100;2022-12-31T01:59:04;102538.78;;;11.01;100.00
56402;BME280;42299;35.160;26.100;2022-12-31T02:00:27;102545.00;;;11.03;100.00
56402;BME280;42299;35.160;26.100;2022-12-31T02:01:49;102542.34;;;11.03;100.00
56402;BME280;42299;35.160;26.100;2022-12-31T02:03:13;102536.19;;;11.02;100.00
56402;BME280;42299;35.160;26.100;2022-12-31T02:04:35;102536.97;;;11.00;100.00
56402;BME280;42299;35.160;26.100;2022-12-31T02:05:56;102538.56;;;10.96;100.00
56402;BME280;42299;35.160;26.100;2022-12-31T02:07:22;102541.91;;;10.92;100.00
56402;BME280;42299;35.160;26.100;2022-12-31T02:08:43;102532.19;;;10.91;100.00
56402;BME280;42299;35.160;26.100;2022-12-31T02:10:06;102530.38;;;10.90;100.00
56402;BME280;42299;35.160;26.100;2022-12-31T02:11:30;102530.38;;;10.90;100.00
56402;BME280;42299;35.160;26.100;2022-12-31T02:12:57;102532.09;;;10.90;100.00
56402;BME280;42299;35.160;26.100;2022-12-31T02:14:20;102531.16;;;10.88;100.00
56402;BME280;42299;35.160;26.100;2022-12-31T02:15:46;102539.91;;;10.87;100.00
56402;BME280;42299;35.160;26.100;2022-12-31T02:17:14;102535.38;;;10.84;100.00
56402;BME280;42299;35.160;26.100;2022-12-31T02:18:42;102536.19;;;10.82;100.00
56402;BME280;42299;35.160;26.100;2022-12-31T02:21:50;102533.19;;;10.74;100.00
56402;BME280;42299;35.160;26.100;2022-12-31T02:23:28;102539.25;;;10.71;100.00
56402;BME280;42299;35.160;26.100;2022-12-31T02:27:09;102544.41;;;10.68;100.00
56402;BME280;42299;35.160;26.100;2022-12-31T02:28:38;102546.16;;;10.68;100.00
56402;BME280;42299;35.160;26.100;2022-12-31T02:30:07;102544.34;;;10.67;100.00
56402;BME280;42299;35.160;26.100;2022-12-31T02:31:30;102546.16;;;10.68;100.00
56402;BME280;42299;35.160;26.100;2022-12-31T02:32:56;102552.53;;;10.73;100.00
56402;BME280;42299;35.160;26.100;2022-12-31T02:34:20;102549.16;;;10.77;100.00
56402;BME280;42299;35.160;26.100;2022-12-31T02:35:46;102544.94;;;10.81;100.00
56402;BME280;42299;35.160;26.100;2022-12-31T02:37:09;102547.69;;;10.84;100.00
56402;BME280;42299;35.160;26.100;2022-12-31T02:38:32;102544.22;;;10.85;100.00
56402;BME280;42299;35.160;26.100;2022-12-31T02:39:56;102539.91;;;10.87;100.00
56402;BME280;42299;35.160;26.100;2022-12-31T02:41:18;102549.66;;;10.88;100.00
56402;BME280;42299;35.160;26.100;2022-12-31T02:42:54;102542.63;;;10.88;100.00
56402;BME280;42299;35.160;26.100;2022-12-31T02:44:20;102548.81;;;10.89;100.00
56402;BME280;42299;35.160;26.100;2022-12-31T02:45:43;102544.44;;;10.89;100.00
56402;BME280;42299;35.160;26.100;2022-12-31T02:47:10;102541.81;;;10.89;100.00
56402;BME280;42299;35.160;26.100;2022-12-31T02:48:35;102549.72;;;10.89;100.00
56402;BME280;42299;35.160;26.100;2022-12-31T02:50:03;102542.75;;;10.91;100.00
56402;BME280;42299;35.160;26.100;2022-12-31T02:51:30;102543.56;;;10.90;100.00
56402;BME280;42299;35.160;26.100;2022-12-31T02:52:57;102544.56;;;10.92;100.00
56402;BME280;42299;35.160;26.100;2022-12-31T02:54:27;102546.38;;;10.93;100.00
56402;BME280;42299;35.160;26.100;2022-12-31T02:55:52;102543.66;;;10.92;100.00
56402;BME280;42299;35.160;26.100;2022-12-31T02:57:17;102545.38;;;10.91;100.00
56402;BME280;42299;35.160;26.100;2022-12-31T02:58:43;102548.88;;;10.90;100.00
56402;BME280;42299;35.160;26.100;2022-12-31T03:00:25;102546.22;;;10.90;100.00
56402;BME280;42299;35.160;26.100;2022-12-31T03:02:07;102549.84;;;10.92;100.00
56402;BME280;42299;35.160;26.100;2022-12-31T03:03:35;102554.22;;;10.92;100.00
56402;BME280;42299;35.160;26.100;2022-12-31T03:04:59;102548.88;;;10.90;100.00
56402;BME280;42299;35.160;26.100;2022-12-31T03:06:21;102549.66;;;10.88;100.00
56402;BME280;42299;35.160;26.100;2022-12-31T03:07:43;102545.97;;;10.84;100.00
56402;BME280;42299;35.160;26.100;2022-12-31T03:09:06;102551.13;;;10.81;100.00
56402;BME280;42299;35.160;26.100;2022-12-31T03:10:33;102547.50;;;10.79;100.00
56402;BME280;42299;35.160;26.100;2022-12-31T03:11:56;102545.69;;;10.78;100.00
56402;BME280;42299;35.160;26.100;2022-12-31T03:13:35;102551.88;;;10.78;100.00
56402;BME280;42299;35.160;26.100;2022-12-31T03:14:56;102552.78;;;10.79;100.00
56402;BME280;42299;35.160;26.100;2022-12-31T03:16:18;102552.94;;;10.82;100.00
56402;BME280;42299;35.160;26.100;2022-12-31T03:17:43;102545.19;;;10.87;100.00
56402;BME280;42299;35.160;26.100;2022-12-31T03:19:03;102557.84;;;10.94;100.00
56402;BME280;42299;35.160;26.100;2022-12-31T03:20:43;102550.34;;;11.04;100.00
56402;BME280;42299;35.160;26.100;2022-12-31T03:22:23;102554.38;;;11.15;100.00
56402;BME280;42299;35.160;26.100;2022-12-31T03:23:48;102552.03;;;11.23;100.00
56402;BME280;42299;35.160;26.100;2022-12-31T03:25:27;102550.69;;;11.33;100.00
56402;BME280;42299;35.160;26.100;2022-12-31T03:26:57;102549.19;;;11.39;100.00
56402;BME280;42299;35.160;26.100;2022-12-31T03:28:18;102552.09;;;11.45;100.00
56402;BME280;42299;35.160;26.100;2022-12-31T03:29:40;102548.72;;;11.49;100.00
56402;BME280;42299;35.160;26.100;2022-12-31T03:31:02;102553.31;;;11.53;100.00
56402;BME280;42299;35.160;26.100;2022-12-31T03:32:24;102553.41;;;11.56;100.00
56402;BME280;42299;35.160;26.100;2022-12-31T03:33:47;102542.00;;;11.57;100.00
56402;BME280;42299;35.160;26.100;2022-12-31T03:35:09;102546.44;;;11.58;100.00
56402;BME280;42299;35.160;26.100;2022-12-31T03:36:31;102545.53;;;11.58;100.00
56402;BME280;42299;35.160;26.100;2022-12-31T03:37:54;102551.59;;;11.55;100.00
56402;BME280;42299;35.160;26.100;2022-12-31T03:39:17;102551.59;;;11.55;100.00
56402;BME280;42299;35.160;26.100;2022-12-31T03:40:39;102548.09;;;11.55;100.00
56402;BME280;42299;35.160;26.100;2022-12-31T03:42:01;102549.84;;;11.56;100.00
56402;BME280;42299;35.160;26.100;2022-12-31T03:43:22;102557.03;;;11.58;100.00
56402;BME280;42299;35.160;26.100;2022-12-31T03:44:44;102546.59;;;11.62;100.00
56402;BME280;42299;35.160;26.100;2022-12-31T03:46:05;102550.16;;;11.64;100.00
56402;BME280;42299;35.160;26.100;2022-12-31T03:47:27;102552.88;;;11.65;100.00
56402;BME280;42299;35.160;26.100;2022-12-31T03:48:50;102550.25;;;11.65;100.00
56402;BME280;42299;35.160;26.100;2022-12-31T03:50:13;102553.78;;;11.66;100.00
56402;BME280;42299;35.160;26.100;2022-12-31T03:51:34;102549.28;;;11.63;100.00
56402;BME280;42299;35.160;26.100;2022-12-31T03:52:56;102551.81;;;11.60;100.00
56402;BME280;42299;35.160;26.100;2022-12-31T03:54:19;102554.31;;;11.57;100.00
56402;BME280;42299;35.160;26.100;2022-12-31T03:55:40;102553.38;;;11.55;100.00
56402;BME280;42299;35.160;26.100;2022-12-31T03:57:02;102557.69;;;11.53;100.00
56402;BME280;42299;35.160;26.100;2022-12-31T03:58:23;102551.44;;;11.51;100.00
56402;BME280;42299;35.160;26.100;2022-12-31T03:59:45;102552.25;;;11.50;100.00
56402;BME280;42299;35.160;26.100;2022-12-31T04:01:06;102558.34;;;11.47;100.00
56402;BME280;42299;35.160;26.100;2022-12-31T04:02:28;102556.59;;;11.48;100.00
56402;BME280;42299;35.160;26.100;2022-12-31T04:03:52;102552.16;;;11.47;100.00
56402;BME280;42299;35.160;26.100;2022-12-31T04:05:14;102555.69;;;11.47;100.00
56402;BME280;42299;35.160;26.100;2022-12-31T04:06:37;102561.81;;;11.46;100.00
56402;BME280;42299;35.160;26.100;2022-12-31T04:07:58;102547.63;;;11.44;100.00
56402;BME280;42299;35.160;26.100;2022-12-31T04:09:20;102557.19;;;11.41;100.00
56402;BME280;42299;35.160;26.100;2022-12-31T04:10:41;102561.44;;;11.37;100.00
56402;BME280;42299;35.160;26.100;2022-12-31T04:12:03;102564.81;;;11.33;100.00
56402;BME280;42299;35.160;26.100;2022-12-31T04:13:24;102562.84;;;11.29;100.00
56402;BME280;42299;35.160;26.100;2022-12-31T04:14:46;102568.03;;;11.26;100.00
56402;BME280;42299;35.160;26.100;2022-12-31T04:16:09;102564.34;;;11.23;100.00
56402;BME280;42299;35.160;26.100;2022-12-31T04:17:29;102569.63;;;11.23;100.00
56402;BME280;42299;35.160;26.100;2022-12-31T04:18:53;102572.28;;;11.23;100.00
56402;BME280;42299;35.160;26.100;2022-12-31T04:20:14;102571.41;;;11.22;100.00
56402;BME280;42299;35.160;26.100;2022-12-31T04:21:36;102566.97;;;11.23;100.00
56402;BME280;42299;35.160;26.100;2022-12-31T04:22:57;102573.97;;;11.21;100.00
56402;BME280;42299;35.160;26.100;2022-12-31T04:24:20;102573.00;;;11.18;100.00
56402;BME280;42299;35.160;26.100;2022-12-31T04:25:41;102573.75;;;11.16;100.00
56402;BME280;42299;35.160;26.100;2022-12-31T04:27:04;102580.66;;;11.12;100.00
56402;BME280;42299;35.160;26.100;2022-12-31T04:28:26;102579.75;;;11.12;100.00
56402;BME280;42299;35.160;26.100;2022-12-31T04:29:48;102574.41;;;11.10;100.00
56402;BME280;42299;35.160;26.100;2022-12-31T04:31:10;102578.84;;;11.11;100.00
56402;BME280;42299;35.160;26.100;2022-12-31T04:32:31;102582.47;;;11.13;100.00
56402;BME280;42299;35.160;26.100;2022-12-31T04:33:55;102573.72;;;11.14;100.00
56402;BME280;42299;35.160;26.100;2022-12-31T04:35:16;102579.00;;;11.14;100.00
56402;BME280;42299;35.160;26.100;2022-12-31T04:36:38;102581.66;;;11.14;100.00
56402;BME280;42299;35.160;26.100;2022-12-31T04:38:00;102586.09;;;11.15;100.00
56402;BME280;42299;35.160;26.100;2022-12-31T04:39:21;102580.84;;;11.17;100.00
56402;BME280;42299;35.160;26.100;2022-12-31T04:40:43;102585.38;;;11.19;100.00
56402;BME280;42299;35.160;26.100;2022-12-31T04:42:19;102592.47;;;11.21;100.00
56402;BME280;42299;35.160;26.100;2022-12-31T04:43:42;102590.78;;;11.23;100.00
56402;BME280;42299;35.160;26.100;2022-12-31T04:45:04;102590.84;;;11.24;100.00
56402;BME280;42299;35.160;26.100;2022-12-31T04:46:27;102599.63;;;11.23;100.00
56402;BME280;42299;35.160;26.100;2022-12-31T04:47:49;102594.22;;;11.20;100.00
56402;BME280;42299;35.160;26.100;2022-12-31T04:49:13;102598.53;;;11.18;100.00
56402;BME280;42299;35.160;26.100;2022-12-31T04:50:36;102594.91;;;11.16;100.00
56402;BME280;42299;35.160;26.100;2022-12-31T04:51:58;102601.88;;;11.14;100.00
56402;BME280;42299;35.160;26.100;2022-12-31T04:53:19;102600.19;;;11.16;100.00
56402;BME280;42299;35.160;26.100;2022-12-31T04:54:42;102602.06;;;11.18;100.00
56402;BME280;42299;35.160;26.100;2022-12-31T04:56:04;102604.91;;;11.23;100.00
56402;BME280;42299;35.160;26.100;2022-12-31T04:57:25;102605.13;;;11.28;100.00
56402;BME280;42299;35.160;26.100;2022-12-31T04:58:48;102600.91;;;11.33;100.00
56402;BME280;42299;35.160;26.100;2022-12-31T05:00:11;102609.94;;;11.38;100.00
56402;BME280;42299;35.160;26.100;2022-12-31T05:01:33;102612.75;;;11.42;100.00
56402;BME280;42299;35.160;26.100;2022-12-31T05:02:56;102609.44;;;11.46;100.00
56402;BME280;42299;35.160;26.100;2022-12-31T05:04:18;102613.16;;;11.51;100.00
56402;BME280;42299;35.160;26.100;2022-12-31T05:05:40;102612.50;;;11.57;100.00
56402;BME280;42299;35.160;26.100;2022-12-31T05:07:02;102614.47;;;11.61;100.00
56402;BME280;42299;35.160;26.100;2022-12-31T05:08:24;102609.34;;;11.66;100.00
56402;BME280;42299;35.160;26.100;2022-12-31T05:09:45;102605.06;;;11.69;100.00
56402;BME280;42299;35.160;26.100;2022-12-31T05:11:07;102610.50;;;11.72;100.00
56402;BME280;42299;35.160;26.100;2022-12-31T05:12:30;102608.00;;;11.75;100.00
56402;BME280;42299;35.160;26.100;2022-12-31T05:13:52;102601.03;;;11.77;100.00
56402;BME280;42299;35.160;26.100;2022-12-31T05:15:14;102608.19;;;11.80;100.00
56402;BME280;42299;35.160;26.100;2022-12-31T05:16:36;102615.34;;;11.82;100.00
56402;BME280;42299;35.160;26.100;2022-12-31T05:17:58;102609.22;;;11.83;100.00
56402;BME280;42299;35.160;26.100;2022-12-31T05:19:21;102619.78;;;11.83;100.00
56402;BME280;42299;35.160;26.100;2022-12-31T05:20:43;102617.16;;;11.83;100.00
56402;BME280;42299;35.160;26.100;2022-12-31T05:22:04;102617.16;;;11.83;100.00
56402;BME280;42299;35.160;26.100;2022-12-31T05:23:44;102614.44;;;11.82;100.00
56402;BME280;42299;35.160;26.100;2022-12-31T05:25:06;102619.72;;;11.82;100.00
56402;BME280;42299;35.160;26.100;2022-12-31T05:26:27;102614.34;;;11.79;100.00
56402;BME280;42299;35.160;26.100;2022-12-31T05:27:49;102612.44;;;11.76;100.00
56402;BME280;42299;35.160;26.100;2022-12-31T05:29:10;102611.50;;;11.74;100.00
56402;BME280;42299;35.160;26.100;2022-12-31T05:30:32;102614.16;;;11.74;100.00
56402;BME280;42299;35.160;26.100;2022-12-31T05:31:53;102621.28;;;11.77;100.00
56402;BME280;42299;35.160;26.100;2022-12-31T05:33:15;102618.72;;;11.78;100.00
56402;BME280;42299;35.160;26.100;2022-12-31T05:34:39;102617.88;;;11.79;100.00
56402;BME280;42299;35.160;26.100;2022-12-31T05:36:02;102624.16;;;11.81;100.00
56402;BME280;42299;35.160;26.100;2022-12-31T05:37:24;102624.19;;;11.83;100.00
56402;BME280;42299;35.160;26.100;2022-12-31T05:38:45;102626.13;;;11.87;100.00
56402;BME280;42299;35.160;26.100;2022-12-31T05:40:08;102627.97;;;11.89;100.00
56402;BME280;42299;35.160;26.100;2022-12-31T05:41:29;102620.94;;;11.90;100.00
56402;BME280;42299;35.160;26.100;2022-12-31T05:42:51;102619.28;;;11.92;100.00
56402;BME280;42299;35.160;26.100;2022-12-31T05:44:12;102623.72;;;11.93;100.00
56402;BME280;42299;35.160;26.100;2022-12-31T05:45:34;102622.00;;;11.93;100.00
56402;BME280;42299;35.160;26.100;2022-12-31T05:46:55;102611.41;;;11.93;100.00
56402;BME280;42299;35.160;26.100;2022-12-31T05:48:17;102621.09;;;11.93;100.00
56402;BME280;42299;35.160;26.100;2022-12-31T05:49:40;102625.47;;;11.92;100.00
56402;BME280;42299;35.160;26.100;2022-12-31T05:51:02;102627.22;;;11.92;100.00
56402;BME280;42299;35.160;26.100;2022-12-31T05:52:25;102626.31;;;11.91;100.00
56402;BME280;42299;35.160;26.100;2022-12-31T05:53:45;102631.53;;;11.90;100.00
56402;BME280;42299;35.160;26.100;2022-12-31T05:55:08;102623.59;;;11.90;100.00
56402;BME280;42299;35.160;26.100;2022-12-31T05:56:29;102627.16;;;11.90;100.00
56402;BME280;42299;35.160;26.100;2022-12-31T05:57:51;102626.31;;;11.91;100.00
56402;BME280;42299;35.160;26.100;2022-12-31T05:59:12;102624.56;;;11.92;100.00
56402;BME280;42299;35.160;26.100;2022-12-31T06:00:35;102631.75;;;11.94;100.00
56402;BME280;42299;35.160;26.100;2022-12-31T06:01:57;102625.66;;;11.97;100.00
56402;BME280;42299;35.160;26.100;2022-12-31T06:03:20;102625.72;;;11.98;100.00
56402;BME280;42299;35.160;26.100;2022-12-31T06:04:45;102630.25;;;12.01;100.00
56402;BME280;42299;35.160;26.100;2022-12-31T06:06:08;102626.72;;;12.02;100.00
56402;BME280;42299;35.160;26.100;2022-12-31T06:07:29;102624.97;;;12.03;100.00
56402;BME280;42299;35.160;26.100;2022-12-31T06:08:52;102620.59;;;12.03;100.00
56402;BME280;42299;35.160;26.100;2022-12-31T06:10:14;102621.63;;;12.07;100.00
56402;BME280;42299;35.160;26.100;2022-12-31T06:11:36;102619.81;;;12.06;100.00
56402;BME280;42299;35.160;26.100;2022-12-31T06:12:57;102620.66;;;12.05;100.00
56402;BME280;42299;35.160;26.100;2022-12-31T06:14:19;102622.34;;;12.03;100.00
56402;BME280;42299;35.160;26.100;2022-12-31T06:15:39;102631.13;;;12.02;100.00
56402;BME280;42299;35.160;26.100;2022-12-31T06:17:02;102628.44;;;12.00;100.00
56402;BME280;42299;35.160;26.100;2022-12-31T06:18:22;102627.53;;;12.00;100.00
56402;BME280;42299;35.160;26.100;2022-12-31T06:19:47;102622.22;;;12.00;100.00
56402;BME280;42299;35.160;26.100;2022-12-31T06:21:09;102629.25;;;11.99;100.00
56402;BME280;42299;35.160;26.100;2022-12-31T06:22:31;102626.63;;;11.99;100.00
56402;BME280;42299;35.160;26.100;2022-12-31T06:23:52;102627.53;;;12.00;100.00
56402;BME280;42299;35.160;26.100;2022-12-31T06:25:14;102625.72;;;11.98;100.00
56402;BME280;42299;35.160;26.100;2022-12-31T06:26:36;102627.47;;;11.98;100.00
56402;BME280;42299;35.160;26.100;2022-12-31T06:27:57;102625.72;;;11.98;100.00
56402;BME280;42299;35.160;26.100;2022-12-31T06:29:20;102617.69;;;11.97;100.00
56402;BME280;42299;35.160;26.100;2022-12-31T06:30:40;102630.94;;;11.97;100.00
56402;BME280;42299;35.160;26.100;2022-12-31T06:32:03;102627.31;;;11.95;100.00
56402;BME280;42299;35.160;26.100;2022-12-31T06:33:25;102626.44;;;11.94;100.00
56402;BME280;42299;35.160;26.100;2022-12-31T06:34:49;102620.19;;;11.92;100.00
56402;BME280;42299;35.160;26.100;2022-12-31T06:36:10;102627.22;;;11.92;100.00
56402;BME280;42299;35.160;26.100;2022-12-31T06:37:33;102634.25;;;11.91;100.00
56402;BME280;42299;35.160;26.100;2022-12-31T06:38:55;102630.63;;;11.89;100.00
56402;BME280;42299;35.160;26.100;2022-12-31T06:40:16;102640.38;;;11.90;100.00
56402;BME280;42299;35.160;26.100;2022-12-31T06:41:38;102641.34;;;11.92;100.00
56402;BME280;42299;35.160;26.100;2022-12-31T06:42:59;102637.88;;;11.93;100.00
56402;BME280;42299;35.160;26.100;2022-12-31T06:44:22;102644.06;;;11.94;100.00
56402;BME280;42299;35.160;26.100;2022-12-31T06:45:44;102637.91;;;11.95;100.00
56402;BME280;42299;35.160;26.100;2022-12-31T06:47:05;102637.91;;;11.95;100.00
56402;BME280;42299;35.160;26.100;2022-12-31T06:48:27;102640.56;;;11.95;100.00
56402;BME280;42299;35.160;26.100;2022-12-31T06:49:50;102645.84;;;11.95;100.00
56402;BME280;42299;35.160;26.100;2022-12-31T06:51:13;102641.47;;;11.95;100.00
56402;BME280;42299;35.160;26.100;2022-12-31T06:52:34;102653.94;;;11.98;100.00
56402;BME280;42299;35.160;26.100;2022-12-31T06:53:57;102649.63;;;12.02;100.00
56402;BME280;42299;35.160;26.100;2022-12-31T06:55:19;102648.88;;;12.04;100.00
56402;BME280;42299;35.160;26.100;2022-12-31T06:56:40;102648.22;;;12.10;100.00
56402;BME280;42299;35.160;26.100;2022-12-31T06:58:03;102647.91;;;12.24;100.00
56402;BME280;42299;35.160;26.100;2022-12-31T06:59:25;102647.56;;;12.37;100.00
56402;BME280;42299;35.160;26.100;2022-12-31T07:00:49;102646.03;;;12.44;100.00
56402;BME280;42299;35.160;26.100;2022-12-31T07:02:25;102647.03;;;12.48;100.00
56402;BME280;42299;35.160;26.100;2022-12-31T07:03:53;102647.94;;;12.48;100.00
56402;BME280;42299;35.160;26.100;2022-12-31T07:05:40;102644.34;;;12.46;100.00
56402;BME280;42299;35.160;26.100;2022-12-31T07:07:06;102652.25;;;12.45;100.00
56402;BME280;42299;35.160;26.100;2022-12-31T07:08:36;102656.72;;;12.47;100.00